sensor_id;sensor_type;location;lat;lon;timestamp;temperature;humidity
6174;DHT22;3120;48.796;9.796;2024-03-22T00:01:56;6.30;99.90
6174;DHT22;3120;48.796;9.796;2024-03-22T00:04:22;6.20;99.90
6174;DHT22;3120;48.796;9.796;2024-03-22T00:06:48;6.20;99.90
6174;DHT22;3120;48.796;9.796;2024-03-22T00:09:15;6.20;99.90
6174;DHT22;3120;48.796;9.796;2024-03-22T00:11:42;6.10;99.90
6174;DHT22;3120;48.796;9.796;2024-03-22T00:14:09;6.10;99.90
6174;DHT22;3120;48.796;9.796;2024-03-22T00:16:35;6.10;99.90
6174;DHT22;3120;48.796;9.796;2024-03-22T00:19:01;6.10;99.90
6174;DHT22;3120;48.796;9.796;2024-03-22T00:21:27;6.10;99.90
6174;DHT22;3120;48.796;9.796;2024-03-22T00:23:53;6.00;99.90
6174;DHT22;3120;48.796;9.796;2024-03-22T00:26:19;5.90;99.90
6174;DHT22;3120;48.796;9.796;2024-03-22T00:28:44;5.90;99.90
6174;DHT22;3120;48.796;9.796;2024-03-22T00:31:10;5.90;99.90
6174;DHT22;3120;48.796;9.796;2024-03-22T00:33:36;5.80;99.90
6174;DHT22;3120;48.796;9.796;2024-03-22T00:36:02;5.80;99.90
6174;DHT22;3120;48.796;9.796;2024-03-22T00:38:28;5.70;99.90
6174;DHT22;3120;48.796;9.796;2024-03-22T00:40:53;5.60;99.90
6174;DHT22;3120;48.796;9.796;2024-03-22T00:43:20;5.60;99.90
6174;DHT22;3120;48.796;9.796;2024-03-22T00:45:46;5.70;99.90
6174;DHT22;3120;48.796;9.796;2024-03-22T00:48:11;5.60;99.90
6174;DHT22;3120;48.796;9.796;2024-03-22T00:50:37;5.60;99.90
6174;DHT22;3120;48.796;9.796;2024-03-22T00:53:03;5.70;99.90
6174;DHT22;3120;48.796;9.796;2024-03-22T00:55:29;5.60;99.90
6174;DHT22;3120;48.796;9.796;2024-03-22T00:57:55;5.50;99.90
6174;DHT22;3120;48.796;9.796;2024-03-22T01:00:20;5.60;99.90
6174;DHT22;3120;48.796;9.796;2024-03-22T01:02:46;5.60;99.90
6174;DHT22;3120;48.796;9.796;2024-03-22T01:05:11;5.60;99.90
6174;DHT22;3120;48.796;9.796;2024-03-22T01:07:37;5.50;99.90
6174;DHT22;3120;48.796;9.796;2024-03-22T01:10:04;5.40;99.90
6174;DHT22;3120;48.796;9.796;2024-03-22T01:12:30;5.30;99.90
6174;DHT22;3120;48.796;9.796;2024-03-22T01:14:56;5.30;99.90
6174;DHT22;3120;48.796;9.796;2024-03-22T01:17:22;5.30;99.90
6174;DHT22;3120;48.796;9.796;2024-03-22T01:19:48;5.30;99.90
6174;DHT22;3120;48.796;9.796;2024-03-22T01:22:14;5.30;99.90
6174;DHT22;3120;48.796;9.796;2024-03-22T01:24:42;5.30;99.90
6174;DHT22;3120;48.796;9.796;2024-03-22T01:27:08;5.20;99.90
6174;DHT22;3120;48.796;9.796;2024-03-22T01:29:34;5.20;99.90
6174;DHT22;3120;48.796;9.796;2024-03-22T01:31:59;5.10;99.90
6174;DHT22;3120;48.796;9.796;2024-03-22T01:34:25;5.10;99.90
6174;DHT22;3120;48.796;9.796;2024-03-22T01:36:51;5.10;99.90
6174;DHT22;3120;48.796;9.796;2024-03-22T01:39:18;5.10;99.90
6174;DHT22;3120;48.796;9.796;2024-03-22T01:41:49;5.10;99.90
6174;DHT22;3120;48.796;9.796;2024-03-22T01:44:15;5.00;99.90
6174;DHT22;3120;48.796;9.796;2024-03-22T01:46:41;4.80;99.90
6174;DHT22;3120;48.796;9.796;2024-03-22T01:49:10;4.80;99.90
6174;DHT22;3120;48.796;9.796;2024-03-22T01:51:36;4.70;99.90
6174;DHT22;3120;48.796;9.796;2024-03-22T01:54:02;4.70;99.90
6174;DHT22;3120;48.796;9.796;2024-03-22T01:56:28;4.60;99.90
6174;DHT22;3120;48.796;9.796;2024-03-22T01:58:55;4.60;99.90
6174;DHT22;3120;48.796;9.796;2024-03-22T02:01:21;4.50;99.90
6174;DHT22;3120;48.796;9.796;2024-03-22T02:03:47;4.50;99.90
6174;DHT22;3120;48.796;9.796;2024-03-22T02:06:12;4.40;99.90
6174;DHT22;3120;48.796;9.796;2024-03-22T02:08:39;4.40;99.90
6174;DHT22;3120;48.796;9.796;2024-03-22T02:11:07;4.40;99.90
6174;DHT22;3120;48.796;9.796;2024-03-22T02:13:33;4.40;99.90
6174;DHT22;3120;48.796;9.796;2024-03-22T02:15:58;4.40;99.90
6174;DHT22;3120;48.796;9.796;2024-03-22T02:18:24;4.40;99.90
6174;DHT22;3120;48.796;9.796;2024-03-22T02:20:49;4.40;99.90
6174;DHT22;3120;48.796;9.796;2024-03-22T02:23:15;4.40;99.90
6174;DHT22;3120;48.796;9.796;2024-03-22T02:25:41;4.50;99.90
6174;DHT22;3120;48.796;9.796;2024-03-22T02:28:06;4.50;99.90
6174;DHT22;3120;48.796;9.796;2024-03-22T02:30:32;4.50;99.90
6174;DHT22;3120;48.796;9.796;2024-03-22T02:32:57;4.50;99.90
6174;DHT22;3120;48.796;9.796;2024-03-22T02:35:23;4.50;99.90
6174;DHT22;3120;48.796;9.796;2024-03-22T02:37:48;4.60;99.90
6174;DHT22;3120;48.796;9.796;2024-03-22T02:40:14;4.60;99.90
6174;DHT22;3120;48.796;9.796;2024-03-22T02:42:40;4.60;99.90
6174;DHT22;3120;48.796;9.796;2024-03-22T02:45:05;4.60;99.90
6174;DHT22;3120;48.796;9.796;2024-03-22T02:47:31;4.60;99.90
6174;DHT22;3120;48.796;9.796;2024-03-22T02:49:56;4.60;99.90
6174;DHT22;3120;48.796;9.796;2024-03-22T02:52:22;4.60;99.90
6174;DHT22;3120;48.796;9.796;2024-03-22T02:54:47;4.60;99.90
6174;DHT22;3120;48.796;9.796;2024-03-22T02:57:13;4.60;99.90
6174;DHT22;3120;48.796;9.796;2024-03-22T02:59:38;4.50;99.90
6174;DHT22;3120;48.796;9.796;2024-03-22T03:02:04;4.50;99.90
6174;DHT22;3120;48.796;9.796;2024-03-22T03:04:30;4.50;99.90
6174;DHT22;3120;48.796;9.796;2024-03-22T03:06:55;4.40;99.90
6174;DHT22;3120;48.796;9.796;2024-03-22T03:09:21;4.40;99.90
6174;DHT22;3120;48.796;9.796;2024-03-22T03:11:46;4.30;99.90
6174;DHT22;3120;48.796;9.796;2024-03-22T03:14:12;4.30;99.90
6174;DHT22;3120;48.796;9.796;2024-03-22T03:16:37;4.20;99.90
6174;DHT22;3120;48.796;9.796;2024-03-22T03:19:03;4.10;99.90
6174;DHT22;3120;48.796;9.796;2024-03-22T03:21:29;4.00;99.90
6174;DHT22;3120;48.796;9.796;2024-03-22T03:23:54;4.00;99.90
6174;DHT22;3120;48.796;9.796;2024-03-22T03:26:20;4.00;99.90
6174;DHT22;3120;48.796;9.796;2024-03-22T03:28:45;3.90;99.90
6174;DHT22;3120;48.796;9.796;2024-03-22T03:31:11;4.00;99.90
6174;DHT22;3120;48.796;9.796;2024-03-22T03:33:36;3.90;99.90
6174;DHT22;3120;48.796;9.796;2024-03-22T03:36:02;3.90;99.90
6174;DHT22;3120;48.796;9.796;2024-03-22T03:38:28;3.80;99.90
6174;DHT22;3120;48.796;9.796;2024-03-22T03:40:53;3.80;99.90
6174;DHT22;3120;48.796;9.796;2024-03-22T03:43:19;3.80;99.90
6174;DHT22;3120;48.796;9.796;2024-03-22T03:45:44;3.80;99.90
6174;DHT22;3120;48.796;9.796;2024-03-22T03:48:10;3.80;99.90
6174;DHT22;3120;48.796;9.796;2024-03-22T03:50:35;3.70;99.90
6174;DHT22;3120;48.796;9.796;2024-03-22T03:53:01;3.70;99.90
6174;DHT22;3120;48.796;9.796;2024-03-22T03:55:27;3.60;99.90
6174;DHT22;3120;48.796;9.796;2024-03-22T03:57:52;3.60;99.90
6174;DHT22;3120;48.796;9.796;2024-03-22T04:00:21;3.70;99.90
6174;DHT22;3120;48.796;9.796;2024-03-22T04:02:49;3.60;99.90
6174;DHT22;3120;48.796;9.796;2024-03-22T04:05:15;3.60;99.90
6174;DHT22;3120;48.796;9.796;2024-03-22T04:07:41;3.50;99.90
6174;DHT22;3120;48.796;9.796;2024-03-22T04:10:08;3.50;99.90
6174;DHT22;3120;48.796;9.796;2024-03-22T04:12:34;3.50;99.90
6174;DHT22;3120;48.796;9.796;2024-03-22T04:15:00;3.50;99.90
6174;DHT22;3120;48.796;9.796;2024-03-22T04:17:25;3.50;99.90
6174;DHT22;3120;48.796;9.796;2024-03-22T04:19:51;3.50;99.90
6174;DHT22;3120;48.796;9.796;2024-03-22T04:22:17;3.50;99.90
6174;DHT22;3120;48.796;9.796;2024-03-22T04:24:43;3.50;99.90
6174;DHT22;3120;48.796;9.796;2024-03-22T04:27:08;3.50;99.90
6174;DHT22;3120;48.796;9.796;2024-03-22T04:29:34;3.50;99.90
6174;DHT22;3120;48.796;9.796;2024-03-22T04:31:59;3.50;99.90
6174;DHT22;3120;48.796;9.796;2024-03-22T04:34:25;3.50;99.90
6174;DHT22;3120;48.796;9.796;2024-03-22T04:36:51;3.50;99.90
6174;DHT22;3120;48.796;9.796;2024-03-22T04:39:20;3.50;99.90
6174;DHT22;3120;48.796;9.796;2024-03-22T04:41:45;3.50;99.90
6174;DHT22;3120;48.796;9.796;2024-03-22T04:44:11;3.50;99.90
6174;DHT22;3120;48.796;9.796;2024-03-22T04:46:36;3.50;99.90
6174;DHT22;3120;48.796;9.796;2024-03-22T04:49:02;3.40;99.90
6174;DHT22;3120;48.796;9.796;2024-03-22T04:51:27;3.30;99.90
6174;DHT22;3120;48.796;9.796;2024-03-22T04:53:53;3.30;99.90
6174;DHT22;3120;48.796;9.796;2024-03-22T04:56:18;3.30;99.90
6174;DHT22;3120;48.796;9.796;2024-03-22T04:58:44;3.20;99.90
6174;DHT22;3120;48.796;9.796;2024-03-22T05:01:09;3.10;99.90
6174;DHT22;3120;48.796;9.796;2024-03-22T05:03:38;3.10;99.90
6174;DHT22;3120;48.796;9.796;2024-03-22T05:06:03;3.10;99.90
6174;DHT22;3120;48.796;9.796;2024-03-22T05:08:30;3.10;99.90
6174;DHT22;3120;48.796;9.796;2024-03-22T05:10:55;3.10;99.90
6174;DHT22;3120;48.796;9.796;2024-03-22T05:13:21;3.10;99.90
6174;DHT22;3120;48.796;9.796;2024-03-22T05:15:47;3.10;99.90
6174;DHT22;3120;48.796;9.796;2024-03-22T05:18:12;3.10;99.90
6174;DHT22;3120;48.796;9.796;2024-03-22T05:20:38;3.20;99.90
6174;DHT22;3120;48.796;9.796;2024-03-22T05:23:03;3.10;99.90
6174;DHT22;3120;48.796;9.796;2024-03-22T05:25:29;3.00;99.90
6174;DHT22;3120;48.796;9.796;2024-03-22T05:27:54;3.10;99.90
6174;DHT22;3120;48.796;9.796;2024-03-22T05:30:20;3.10;99.90
6174;DHT22;3120;48.796;9.796;2024-03-22T05:32:46;3.10;99.90
6174;DHT22;3120;48.796;9.796;2024-03-22T05:35:11;3.00;99.90
6174;DHT22;3120;48.796;9.796;2024-03-22T05:37:37;3.00;99.90
6174;DHT22;3120;48.796;9.796;2024-03-22T05:40:03;3.00;99.90
6174;DHT22;3120;48.796;9.796;2024-03-22T05:42:31;3.00;99.90
6174;DHT22;3120;48.796;9.796;2024-03-22T05:44:57;3.10;99.90
6174;DHT22;3120;48.796;9.796;2024-03-22T05:47:23;3.10;99.90
6174;DHT22;3120;48.796;9.796;2024-03-22T05:49:48;3.10;99.90
6174;DHT22;3120;48.796;9.796;2024-03-22T05:52:14;3.20;99.90
6174;DHT22;3120;48.796;9.796;2024-03-22T05:54:40;3.30;99.90
6174;DHT22;3120;48.796;9.796;2024-03-22T05:57:06;3.30;99.90
6174;DHT22;3120;48.796;9.796;2024-03-22T05:59:32;3.40;99.90
6174;DHT22;3120;48.796;9.796;2024-03-22T06:01:57;3.50;99.90
6174;DHT22;3120;48.796;9.796;2024-03-22T06:04:23;3.70;99.90
6174;DHT22;3120;48.796;9.796;2024-03-22T06:06:49;3.80;99.90
6174;DHT22;3120;48.796;9.796;2024-03-22T06:09:15;4.00;99.90
6174;DHT22;3120;48.796;9.796;2024-03-22T06:11:49;4.10;99.90
6174;DHT22;3120;48.796;9.796;2024-03-22T06:14:15;4.30;99.90
6174;DHT22;3120;48.796;9.796;2024-03-22T06:16:41;4.30;99.90
6174;DHT22;3120;48.796;9.796;2024-03-22T06:19:06;4.40;99.90
6174;DHT22;3120;48.796;9.796;2024-03-22T06:21:32;4.50;99.90
6174;DHT22;3120;48.796;9.796;2024-03-22T06:23:57;4.70;99.90
6174;DHT22;3120;48.796;9.796;2024-03-22T06:26:23;4.70;99.90
6174;DHT22;3120;48.796;9.796;2024-03-22T06:28:48;4.80;99.90
6174;DHT22;3120;48.796;9.796;2024-03-22T06:31:14;5.00;99.90
6174;DHT22;3120;48.796;9.796;2024-03-22T06:33:39;5.00;99.90
6174;DHT22;3120;48.796;9.796;2024-03-22T06:36:06;5.10;99.90
6174;DHT22;3120;48.796;9.796;2024-03-22T06:38:31;5.30;99.90
6174;DHT22;3120;48.796;9.796;2024-03-22T06:40:57;5.40;99.90
6174;DHT22;3120;48.796;9.796;2024-03-22T06:43:24;5.50;99.90
6174;DHT22;3120;48.796;9.796;2024-03-22T06:45:50;5.60;99.90
6174;DHT22;3120;48.796;9.796;2024-03-22T06:48:16;5.60;99.90
6174;DHT22;3120;48.796;9.796;2024-03-22T06:50:42;5.80;99.90
6174;DHT22;3120;48.796;9.796;2024-03-22T06:53:07;5.90;99.90
6174;DHT22;3120;48.796;9.796;2024-03-22T06:55:35;6.00;99.90
6174;DHT22;3120;48.796;9.796;2024-03-22T06:58:00;6.10;99.90
6174;DHT22;3120;48.796;9.796;2024-03-22T07:00:26;6.20;99.90
6174;DHT22;3120;48.796;9.796;2024-03-22T07:02:51;6.30;99.90
6174;DHT22;3120;48.796;9.796;2024-03-22T07:05:17;6.40;99.90
6174;DHT22;3120;48.796;9.796;2024-03-22T07:07:43;6.40;99.90
6174;DHT22;3120;48.796;9.796;2024-03-22T07:10:09;6.40;99.90
6174;DHT22;3120;48.796;9.796;2024-03-22T07:12:34;6.50;99.90
6174;DHT22;3120;48.796;9.796;2024-03-22T07:15:01;6.60;99.90
6174;DHT22;3120;48.796;9.796;2024-03-22T07:17:28;6.50;99.90
6174;DHT22;3120;48.796;9.796;2024-03-22T07:19:53;6.50;99.90
6174;DHT22;3120;48.796;9.796;2024-03-22T07:22:20;6.50;99.90
6174;DHT22;3120;48.796;9.796;2024-03-22T07:24:45;6.50;99.90
6174;DHT22;3120;48.796;9.796;2024-03-22T07:27:12;6.70;99.90
6174;DHT22;3120;48.796;9.796;2024-03-22T07:29:39;7.00;99.90
6174;DHT22;3120;48.796;9.796;2024-03-22T07:32:05;7.10;99.90
6174;DHT22;3120;48.796;9.796;2024-03-22T07:34:31;7.30;99.90
6174;DHT22;3120;48.796;9.796;2024-03-22T07:36:56;7.50;99.90
6174;DHT22;3120;48.796;9.796;2024-03-22T07:39:22;7.70;99.90
6174;DHT22;3120;48.796;9.796;2024-03-22T07:41:49;7.80;99.90
6174;DHT22;3120;48.796;9.796;2024-03-22T07:44:15;8.00;99.90
6174;DHT22;3120;48.796;9.796;2024-03-22T07:46:43;8.20;99.90
6174;DHT22;3120;48.796;9.796;2024-03-22T07:49:09;8.40;99.90
6174;DHT22;3120;48.796;9.796;2024-03-22T07:51:35;8.60;99.90
6174;DHT22;3120;48.796;9.796;2024-03-22T07:54:01;8.70;99.90
6174;DHT22;3120;48.796;9.796;2024-03-22T07:56:28;8.90;99.90
6174;DHT22;3120;48.796;9.796;2024-03-22T07:58:53;9.10;99.90
6174;DHT22;3120;48.796;9.796;2024-03-22T08:01:19;9.30;99.90
6174;DHT22;3120;48.796;9.796;2024-03-22T08:03:48;9.60;99.90
6174;DHT22;3120;48.796;9.796;2024-03-22T08:06:13;9.80;99.90
6174;DHT22;3120;48.796;9.796;2024-03-22T08:08:39;10.00;99.90
6174;DHT22;3120;48.796;9.796;2024-03-22T08:11:05;10.20;99.90
6174;DHT22;3120;48.796;9.796;2024-03-22T08:13:30;10.40;99.90
6174;DHT22;3120;48.796;9.796;2024-03-22T08:15:56;10.70;99.90
6174;DHT22;3120;48.796;9.796;2024-03-22T08:18:21;10.90;99.90
6174;DHT22;3120;48.796;9.796;2024-03-22T08:20:47;11.10;99.90
6174;DHT22;3120;48.796;9.796;2024-03-22T08:23:12;11.30;99.90
6174;DHT22;3120;48.796;9.796;2024-03-22T08:25:38;11.40;99.90
6174;DHT22;3120;48.796;9.796;2024-03-22T08:28:04;11.60;99.90
6174;DHT22;3120;48.796;9.796;2024-03-22T08:30:29;11.80;99.90
6174;DHT22;3120;48.796;9.796;2024-03-22T08:32:55;11.90;99.90
6174;DHT22;3120;48.796;9.796;2024-03-22T08:35:20;11.90;99.90
6174;DHT22;3120;48.796;9.796;2024-03-22T08:37:46;12.00;99.90
6174;DHT22;3120;48.796;9.796;2024-03-22T08:40:12;12.20;99.90
6174;DHT22;3120;48.796;9.796;2024-03-22T08:42:39;12.40;99.90
6174;DHT22;3120;48.796;9.796;2024-03-22T08:45:05;12.60;99.90
6174;DHT22;3120;48.796;9.796;2024-03-22T08:47:31;13.00;99.90
6174;DHT22;3120;48.796;9.796;2024-03-22T08:49:59;13.30;99.90
6174;DHT22;3120;48.796;9.796;2024-03-22T08:52:24;13.60;99.90
6174;DHT22;3120;48.796;9.796;2024-03-22T08:54:51;13.80;99.90
6174;DHT22;3120;48.796;9.796;2024-03-22T08:57:17;14.10;99.90
6174;DHT22;3120;48.796;9.796;2024-03-22T08:59:43;14.50;99.90
6174;DHT22;3120;48.796;9.796;2024-03-22T09:02:08;14.70;99.90
6174;DHT22;3120;48.796;9.796;2024-03-22T09:04:34;14.90;99.90
6174;DHT22;3120;48.796;9.796;2024-03-22T09:06:59;15.30;99.90
6174;DHT22;3120;48.796;9.796;2024-03-22T09:09:25;15.40;99.90
6174;DHT22;3120;48.796;9.796;2024-03-22T09:11:51;15.60;99.90
6174;DHT22;3120;48.796;9.796;2024-03-22T09:14:16;15.90;99.90
6174;DHT22;3120;48.796;9.796;2024-03-22T09:16:42;16.10;99.90
6174;DHT22;3120;48.796;9.796;2024-03-22T09:19:08;16.00;99.90
6174;DHT22;3120;48.796;9.796;2024-03-22T09:21:34;16.20;99.90
6174;DHT22;3120;48.796;9.796;2024-03-22T09:23:59;16.10;99.90
6174;DHT22;3120;48.796;9.796;2024-03-22T09:26:25;16.00;99.90
6174;DHT22;3120;48.796;9.796;2024-03-22T09:28:51;16.60;99.90
6174;DHT22;3120;48.796;9.796;2024-03-22T09:31:17;17.20;99.90
6174;DHT22;3120;48.796;9.796;2024-03-22T09:33:42;17.70;99.90
6174;DHT22;3120;48.796;9.796;2024-03-22T09:36:08;17.70;99.90
6174;DHT22;3120;48.796;9.796;2024-03-22T09:38:34;17.60;99.90
6174;DHT22;3120;48.796;9.796;2024-03-22T09:41:00;18.20;99.90
6174;DHT22;3120;48.796;9.796;2024-03-22T09:43:27;18.60;99.90
6174;DHT22;3120;48.796;9.796;2024-03-22T09:45:54;18.70;99.90
6174;DHT22;3120;48.796;9.796;2024-03-22T09:48:20;18.40;99.90
6174;DHT22;3120;48.796;9.796;2024-03-22T09:50:47;17.80;99.90
6174;DHT22;3120;48.796;9.796;2024-03-22T09:53:13;17.90;99.90
6174;DHT22;3120;48.796;9.796;2024-03-22T09:55:45;18.30;99.90
6174;DHT22;3120;48.796;9.796;2024-03-22T09:58:10;18.30;99.90
6174;DHT22;3120;48.796;9.796;2024-03-22T10:00:36;18.70;99.90
6174;DHT22;3120;48.796;9.796;2024-03-22T10:03:03;19.00;99.90
6174;DHT22;3120;48.796;9.796;2024-03-22T10:05:29;19.70;99.40
6174;DHT22;3120;48.796;9.796;2024-03-22T10:07:55;20.10;97.50
6174;DHT22;3120;48.796;9.796;2024-03-22T10:10:21;19.90;96.60
6174;DHT22;3120;48.796;9.796;2024-03-22T10:12:47;19.90;96.80
6174;DHT22;3120;48.796;9.796;2024-03-22T10:15:13;20.90;95.10
6174;DHT22;3120;48.796;9.796;2024-03-22T10:17:39;21.80;92.20
6174;DHT22;3120;48.796;9.796;2024-03-22T10:20:05;21.60;90.80
6174;DHT22;3120;48.796;9.796;2024-03-22T10:22:38;21.50;90.30
6174;DHT22;3120;48.796;9.796;2024-03-22T10:25:05;21.70;89.00
6174;DHT22;3120;48.796;9.796;2024-03-22T10:27:31;21.60;87.90
6174;DHT22;3120;48.796;9.796;2024-03-22T10:29:58;21.90;87.10
6174;DHT22;3120;48.796;9.796;2024-03-22T10:32:24;22.40;83.80
6174;DHT22;3120;48.796;9.796;2024-03-22T10:34:50;22.50;82.20
6174;DHT22;3120;48.796;9.796;2024-03-22T10:37:16;23.30;78.70
6174;DHT22;3120;48.796;9.796;2024-03-22T10:39:43;23.40;76.40
6174;DHT22;3120;48.796;9.796;2024-03-22T10:42:11;23.00;75.80
6174;DHT22;3120;48.796;9.796;2024-03-22T10:44:37;22.50;75.70
6174;DHT22;3120;48.796;9.796;2024-03-22T10:47:04;22.30;77.10
6174;DHT22;3120;48.796;9.796;2024-03-22T10:49:37;22.60;75.00
6174;DHT22;3120;48.796;9.796;2024-03-22T10:52:03;22.30;73.00
6174;DHT22;3120;48.796;9.796;2024-03-22T10:54:42;21.60;74.10
6174;DHT22;3120;48.796;9.796;2024-03-22T10:57:13;21.40;74.30
6174;DHT22;3120;48.796;9.796;2024-03-22T10:59:41;22.00;74.50
6174;DHT22;3120;48.796;9.796;2024-03-22T11:02:07;22.30;74.00
6174;DHT22;3120;48.796;9.796;2024-03-22T11:04:35;22.00;72.80
6174;DHT22;3120;48.796;9.796;2024-03-22T11:07:01;22.20;72.90
6174;DHT22;3120;48.796;9.796;2024-03-22T11:09:28;22.20;72.00
6174;DHT22;3120;48.796;9.796;2024-03-22T11:11:55;22.00;71.30
6174;DHT22;3120;48.796;9.796;2024-03-22T11:14:22;21.80;72.10
6174;DHT22;3120;48.796;9.796;2024-03-22T11:16:49;22.20;71.70
6174;DHT22;3120;48.796;9.796;2024-03-22T11:19:16;22.00;70.90
6174;DHT22;3120;48.796;9.796;2024-03-22T11:21:41;22.20;70.60
6174;DHT22;3120;48.796;9.796;2024-03-22T11:24:07;22.00;70.40
6174;DHT22;3120;48.796;9.796;2024-03-22T11:26:33;22.10;69.60
6174;DHT22;3120;48.796;9.796;2024-03-22T11:28:59;21.80;69.90
6174;DHT22;3120;48.796;9.796;2024-03-22T11:31:26;22.50;67.80
6174;DHT22;3120;48.796;9.796;2024-03-22T11:33:55;22.70;67.40
6174;DHT22;3120;48.796;9.796;2024-03-22T11:36:24;22.60;68.30
6174;DHT22;3120;48.796;9.796;2024-03-22T11:38:50;23.20;65.80
6174;DHT22;3120;48.796;9.796;2024-03-22T11:41:20;23.20;65.10
6174;DHT22;3120;48.796;9.796;2024-03-22T11:43:47;23.60;64.10
6174;DHT22;3120;48.796;9.796;2024-03-22T11:46:15;23.40;63.80
6174;DHT22;3120;48.796;9.796;2024-03-22T11:48:41;23.20;63.30
6174;DHT22;3120;48.796;9.796;2024-03-22T11:51:08;23.30;63.70
6174;DHT22;3120;48.796;9.796;2024-03-22T11:53:35;23.60;62.20
6174;DHT22;3120;48.796;9.796;2024-03-22T11:56:01;23.90;60.20
6174;DHT22;3120;48.796;9.796;2024-03-22T11:58:29;24.00;59.90
6174;DHT22;3120;48.796;9.796;2024-03-22T12:00:56;23.70;60.60
6174;DHT22;3120;48.796;9.796;2024-03-22T12:03:22;23.40;59.80
6174;DHT22;3120;48.796;9.796;2024-03-22T12:05:48;23.30;60.20
6174;DHT22;3120;48.796;9.796;2024-03-22T12:08:17;24.20;58.70
6174;DHT22;3120;48.796;9.796;2024-03-22T12:10:43;23.70;59.30
6174;DHT22;3120;48.796;9.796;2024-03-22T12:13:09;24.00;58.80
6174;DHT22;3120;48.796;9.796;2024-03-22T12:15:34;24.20;57.90
6174;DHT22;3120;48.796;9.796;2024-03-22T12:18:00;24.10;58.00
6174;DHT22;3120;48.796;9.796;2024-03-22T12:20:26;23.90;56.80
6174;DHT22;3120;48.796;9.796;2024-03-22T12:22:52;24.20;56.40
6174;DHT22;3120;48.796;9.796;2024-03-22T12:25:18;24.20;55.60
6174;DHT22;3120;48.796;9.796;2024-03-22T12:27:43;23.60;57.40
6174;DHT22;3120;48.796;9.796;2024-03-22T12:30:10;24.50;55.50
6174;DHT22;3120;48.796;9.796;2024-03-22T12:32:36;25.10;54.40
6174;DHT22;3120;48.796;9.796;2024-03-22T12:35:02;24.40;54.80
6174;DHT22;3120;48.796;9.796;2024-03-22T12:37:28;24.80;54.50
6174;DHT22;3120;48.796;9.796;2024-03-22T12:39:53;25.80;52.50
6174;DHT22;3120;48.796;9.796;2024-03-22T12:42:20;25.70;51.10
6174;DHT22;3120;48.796;9.796;2024-03-22T12:44:45;25.50;51.30
6174;DHT22;3120;48.796;9.796;2024-03-22T12:47:11;24.80;51.90
6174;DHT22;3120;48.796;9.796;2024-03-22T12:49:37;24.10;52.50
6174;DHT22;3120;48.796;9.796;2024-03-22T12:52:02;23.30;54.40
6174;DHT22;3120;48.796;9.796;2024-03-22T12:54:29;23.20;53.90
6174;DHT22;3120;48.796;9.796;2024-03-22T12:56:54;23.00;54.70
6174;DHT22;3120;48.796;9.796;2024-03-22T12:59:20;22.50;55.60
6174;DHT22;3120;48.796;9.796;2024-03-22T13:01:46;22.00;57.30
6174;DHT22;3120;48.796;9.796;2024-03-22T13:04:12;21.80;58.00
6174;DHT22;3120;48.796;9.796;2024-03-22T13:06:38;22.20;56.50
6174;DHT22;3120;48.796;9.796;2024-03-22T13:09:03;22.40;56.50
6174;DHT22;3120;48.796;9.796;2024-03-22T13:11:31;23.10;55.10
6174;DHT22;3120;48.796;9.796;2024-03-22T13:13:57;22.40;56.00
6174;DHT22;3120;48.796;9.796;2024-03-22T13:16:23;22.00;57.30
6174;DHT22;3120;48.796;9.796;2024-03-22T13:18:49;22.60;56.00
6174;DHT22;3120;48.796;9.796;2024-03-22T13:21:14;24.30;53.20
6174;DHT22;3120;48.796;9.796;2024-03-22T13:23:40;25.60;51.10
6174;DHT22;3120;48.796;9.796;2024-03-22T13:26:05;26.00;49.50
6174;DHT22;3120;48.796;9.796;2024-03-22T13:28:32;24.50;52.40
6174;DHT22;3120;48.796;9.796;2024-03-22T13:31:04;23.90;52.90
6174;DHT22;3120;48.796;9.796;2024-03-22T13:33:33;24.30;52.30
6174;DHT22;3120;48.796;9.796;2024-03-22T13:35:58;24.80;50.70
6174;DHT22;3120;48.796;9.796;2024-03-22T13:38:24;25.60;49.30
6174;DHT22;3120;48.796;9.796;2024-03-22T13:40:56;26.00;48.30
6174;DHT22;3120;48.796;9.796;2024-03-22T13:43:23;25.50;48.00
6174;DHT22;3120;48.796;9.796;2024-03-22T13:45:52;25.30;48.10
6174;DHT22;3120;48.796;9.796;2024-03-22T13:48:22;24.20;49.70
6174;DHT22;3120;48.796;9.796;2024-03-22T13:50:50;23.90;50.20
6174;DHT22;3120;48.796;9.796;2024-03-22T13:53:16;23.70;50.30
6174;DHT22;3120;48.796;9.796;2024-03-22T13:55:42;24.30;50.30
6174;DHT22;3120;48.796;9.796;2024-03-22T13:58:08;24.60;50.70
6174;DHT22;3120;48.796;9.796;2024-03-22T14:00:34;24.80;48.30
6174;DHT22;3120;48.796;9.796;2024-03-22T14:02:59;24.40;48.90
6174;DHT22;3120;48.796;9.796;2024-03-22T14:05:25;23.80;50.20
6174;DHT22;3120;48.796;9.796;2024-03-22T14:07:52;23.50;51.00
6174;DHT22;3120;48.796;9.796;2024-03-22T14:10:17;23.10;51.60
6174;DHT22;3120;48.796;9.796;2024-03-22T14:12:45;22.50;52.80
6174;DHT22;3120;48.796;9.796;2024-03-22T14:15:10;22.10;53.80
6174;DHT22;3120;48.796;9.796;2024-03-22T14:17:36;22.00;54.30
6174;DHT22;3120;48.796;9.796;2024-03-22T14:20:02;21.70;55.70
6174;DHT22;3120;48.796;9.796;2024-03-22T14:22:34;21.50;55.10
6174;DHT22;3120;48.796;9.796;2024-03-22T14:24:59;21.40;55.90
6174;DHT22;3120;48.796;9.796;2024-03-22T14:27:25;21.70;56.00
6174;DHT22;3120;48.796;9.796;2024-03-22T14:29:50;21.50;56.00
6174;DHT22;3120;48.796;9.796;2024-03-22T14:32:17;21.70;56.00
6174;DHT22;3120;48.796;9.796;2024-03-22T14:34:43;22.00;54.60
6174;DHT22;3120;48.796;9.796;2024-03-22T14:37:08;22.20;55.10
6174;DHT22;3120;48.796;9.796;2024-03-22T14:39:34;22.60;54.80
6174;DHT22;3120;48.796;9.796;2024-03-22T14:41:59;22.60;54.90
6174;DHT22;3120;48.796;9.796;2024-03-22T14:44:25;22.50;54.80
6174;DHT22;3120;48.796;9.796;2024-03-22T14:46:50;22.30;55.40
6174;DHT22;3120;48.796;9.796;2024-03-22T14:49:16;22.30;54.30
6174;DHT22;3120;48.796;9.796;2024-03-22T14:51:41;22.10;54.20
6174;DHT22;3120;48.796;9.796;2024-03-22T14:54:07;21.80;55.40
6174;DHT22;3120;48.796;9.796;2024-03-22T14:56:32;21.30;58.00
6174;DHT22;3120;48.796;9.796;2024-03-22T14:58:58;21.30;57.00
6174;DHT22;3120;48.796;9.796;2024-03-22T15:01:25;21.10;57.10
6174;DHT22;3120;48.796;9.796;2024-03-22T15:03:52;21.00;57.70
6174;DHT22;3120;48.796;9.796;2024-03-22T15:06:17;20.80;58.10
6174;DHT22;3120;48.796;9.796;2024-03-22T15:08:43;20.80;58.10
6174;DHT22;3120;48.796;9.796;2024-03-22T15:11:08;20.80;57.90
6174;DHT22;3120;48.796;9.796;2024-03-22T15:13:34;20.60;59.10
6174;DHT22;3120;48.796;9.796;2024-03-22T15:16:00;20.60;59.40
6174;DHT22;3120;48.796;9.796;2024-03-22T15:18:25;20.50;60.10
6174;DHT22;3120;48.796;9.796;2024-03-22T15:20:54;20.60;59.40
6174;DHT22;3120;48.796;9.796;2024-03-22T15:23:20;20.60;60.70
6174;DHT22;3120;48.796;9.796;2024-03-22T15:25:46;20.40;60.60
6174;DHT22;3120;48.796;9.796;2024-03-22T15:28:13;20.50;59.50
6174;DHT22;3120;48.796;9.796;2024-03-22T15:30:38;20.20;59.60
6174;DHT22;3120;48.796;9.796;2024-03-22T15:33:05;20.00;60.00
6174;DHT22;3120;48.796;9.796;2024-03-22T15:35:32;20.00;60.00
6174;DHT22;3120;48.796;9.796;2024-03-22T15:37:57;19.90;60.90
6174;DHT22;3120;48.796;9.796;2024-03-22T15:40:23;19.90;62.40
6174;DHT22;3120;48.796;9.796;2024-03-22T15:42:49;19.80;61.90
6174;DHT22;3120;48.796;9.796;2024-03-22T15:45:15;19.60;63.60
6174;DHT22;3120;48.796;9.796;2024-03-22T15:47:41;19.20;64.80
6174;DHT22;3120;48.796;9.796;2024-03-22T15:50:07;18.90;66.70
6174;DHT22;3120;48.796;9.796;2024-03-22T15:52:32;18.90;66.30
6174;DHT22;3120;48.796;9.796;2024-03-22T15:54:59;19.00;66.50
6174;DHT22;3120;48.796;9.796;2024-03-22T15:57:25;18.90;66.70
6174;DHT22;3120;48.796;9.796;2024-03-22T15:59:51;18.90;66.50
6174;DHT22;3120;48.796;9.796;2024-03-22T16:02:17;18.90;67.20